MSC Annamaria — H3HN — position and weather

sailwx.info

Track history (hours):
 
Tides and Currents Weather Stations Pressure Air Temp Water Temp Dewpoint Dewpoint Depression Visibility Wind Speed Wind Dir Waves Ship Positions

MSC Annamaria

Last reported at 2016-Jun-25 04:33 UTC. Time now 2016-Jun-25 05:19 UTC.
Position N 40°41' E 014°12'.

Length 188 m; draft 6.8 m.

Type: Ship (hazmat cat A). MMSI: 353852000.

Date/timePositionNaut miles runAvg speedWind from/ knotsBaromVisibWave heightAir tempDewpointWater temp
2016-Jun-25 04:33N 40°41' E 014°12'1312.9
2016-Jun-25 03:33N 40°29' E 014°06'11013.6
2016-Jun-24 19:31N 38°58' E 015°25'1313.3
2016-Jun-24 18:33N 38°48' E 015°34'1513.8
2016-Jun-24 17:29N 38°35' E 015°44'1112.2
2016-Jun-24 16:33N 38°27' E 015°54'1 0.6
2016-Jun-24 15:31N 38°27' E 015°54'0 0.0
2016-Jun-24 14:31N 38°27' E 015°54'0 0.0
2016-Jun-24 13:27N 38°27' E 015°54'0 0.0
2016-Jun-24 12:31N 38°27' E 015°54'0 0.0
2016-Jun-24 11:26N 38°27' E 015°54'0 0.0
2016-Jun-24 10:29N 38°27' E 015°54'0 0.0
2016-Jun-24 09:19N 38°27' E 015°54'0 0.0
2016-Jun-24 08:32N 38°27' E 015°54'0 0.0
2016-Jun-24 07:32N 38°27' E 015°54'0 0.0
2016-Jun-24 04:27N 38°27' E 015°54'0 0.0
2016-Jun-24 03:31N 38°27' E 015°54'0 0.0
2016-Jun-24 02:25N 38°27' E 015°54'0 0.0
2016-Jun-24 01:33N 38°27' E 015°54'0 0.0
2016-Jun-24 00:28N 38°27' E 015°54'0 0.0
2016-Jun-23 23:28N 38°27' E 015°54'0 0.0
2016-Jun-23 22:32N 38°27' E 015°54'0 0.0
2016-Jun-23 21:32N 38°27' E 015°54'0 0.0
2016-Jun-23 20:25N 38°27' E 015°54'0 0.0
2016-Jun-23 19:32N 38°27' E 015°54'0 0.0
2016-Jun-23 18:24N 38°27' E 015°54'0 0.0
2016-Jun-23 17:32N 38°27' E 015°54'0 0.2
2016-Jun-23 16:33N 38°27' E 015°54'4 4.4
2016-Jun-23 15:34N 38°30' E 015°50'1212.2
2016-Jun-23 14:33N 38°40' E 015°41'1313.2
2016-Jun-23 13:33N 38°51' E 015°32'1413.3
2016-Jun-23 12:27N 39°03' E 015°21'1213.4
2016-Jun-23 11:33N 39°13' E 015°12'106 7.0
2016-Jun-22 20:21N 40°50' E 014°17'0 0.0
2016-Jun-22 19:33N 40°50' E 014°17'0 0.0
2016-Jun-22 18:34N 40°50' E 014°17'0 0.0
2016-Jun-22 17:34N 40°50' E 014°17'0 0.0
2016-Jun-22 11:14N 40°50' E 014°17'0 0.0
2016-Jun-22 10:31N 40°50' E 014°17'0 0.0
2016-Jun-22 09:34N 40°50' E 014°17'68 6.6
2016-Jun-21 23:16N 40°37' E 012°49'5712.2
2016-Jun-21 18:34N 41°12' E 011°49'1312.5
2016-Jun-21 17:34N 41°20' E 011°36'1312.4
2016-Jun-21 16:32N 41°28' E 011°23'7512.0
2016-Jun-21 10:17N 42°15' E 010°04'811.7
2016-Jun-21 09:33N 42°22' E 009°58'2512.6
2016-Jun-21 07:32N 42°46' E 009°47'2412.3
2016-Jun-21 05:34N 43°08' E 009°34'1212.4
2016-Jun-21 04:34N 43°19' E 009°26'1212.1
2016-Jun-21 03:33N 43°30' E 009°18'1111.5
2016-Jun-21 02:34N 43°40' E 009°11'1211.5
2016-Jun-21 01:34N 43°50' E 009°03'1111.5
2016-Jun-21 00:34N 44°01' E 008°56'1211.5
2016-Jun-20 23:33N 44°11' E 008°49'1211.8
2016-Jun-20 22:34N 44°22' E 008°42'5 4.9
2016-Jun-20 21:33N 44°25' E 008°48'0 0.0
2016-Jun-20 20:25N 44°25' E 008°48'0 0.0
2016-Jun-20 19:33N 44°25' E 008°48'0 0.0
2016-Jun-20 18:33N 44°25' E 008°48'0 0.0
2016-Jun-20 17:33N 44°25' E 008°48'0 0.0
2016-Jun-20 16:33N 44°25' E 008°48'0 0.0
2016-Jun-20 15:33N 44°25' E 008°48'0 0.0
2016-Jun-20 14:31N 44°25' E 008°48'0 0.0
2016-Jun-20 13:33N 44°25' E 008°48'0 0.0
2016-Jun-20 12:31N 44°25' E 008°48'0 0.0
2016-Jun-20 11:33N 44°25' E 008°48'0 0.0
2016-Jun-20 10:32N 44°25' E 008°48'0 0.0
2016-Jun-20 09:32N 44°25' E 008°48'0 0.0
2016-Jun-20 08:28N 44°25' E 008°48'4 4.7
2016-Jun-20 07:33N 44°22' E 008°43'1212.2
2016-Jun-20 06:33N 44°11' E 008°50'1313.1
2016-Jun-20 05:34N 43°59' E 008°57'1413.6
2016-Jun-20 04:34N 43°47' E 009°06'1413.7
2016-Jun-20 03:33N 43°35' E 009°14'1313.3
2016-Jun-20 02:33N 43°23' E 009°23'1312.9
2016-Jun-20 01:33N 43°12' E 009°33'1312.9
2016-Jun-20 00:33N 43°00' E 009°39'1312.7
2016-Jun-19 23:33N 42°48' E 009°45'5112.5
2016-Jun-19 19:30N 42°04' E 010°19'28612.5
2016-Jun-18 20:33N 38°52' E 014°58'1313.1
2016-Jun-18 19:33N 38°43' E 015°10'1313.3
2016-Jun-18 18:33N 38°37' E 015°26'1313.4
2016-Jun-18 17:33N 38°32' E 015°41'1111.0
2016-Jun-18 16:34N 38°27' E 015°53'1 0.7
2016-Jun-18 15:30N 38°27' E 015°54'0 0.0
2016-Jun-18 14:33N 38°27' E 015°54'0 0.0
2016-Jun-18 13:22N 38°27' E 015°54'0 0.0
2016-Jun-18 12:29N 38°27' E 015°54'0 0.0
2016-Jun-18 11:32N 38°27' E 015°54'0 0.0
2016-Jun-18 10:32N 38°27' E 015°54'0 0.0
2016-Jun-18 09:33N 38°27' E 015°54'0 0.0
2016-Jun-18 08:31N 38°27' E 015°54'0 0.0
2016-Jun-18 07:33N 38°27' E 015°54'0 0.0
2016-Jun-18 06:29N 38°27' E 015°54'0 0.0
2016-Jun-18 05:32N 38°27' E 015°54'0 0.0
2016-Jun-18 04:30N 38°27' E 015°54'0 0.0
2016-Jun-18 03:31N 38°27' E 015°54'0 0.0
2016-Jun-18 02:31N 38°27' E 015°54'0 0.0
2016-Jun-18 01:31N 38°27' E 015°54'0 0.0
2016-Jun-18 00:32N 38°27' E 015°54'0 0.0
2016-Jun-17 23:33N 38°27' E 015°54'0 0.0
2016-Jun-17 22:33N 38°27' E 015°54'0 0.0
2016-Jun-17 21:33N 38°27' E 015°54'0 0.0
2016-Jun-17 20:32N 38°27' E 015°54'0 0.0
2016-Jun-17 19:32N 38°27' E 015°54'0 0.0
2016-Jun-17 18:33N 38°27' E 015°54'0 0.0
2016-Jun-17 17:33N 38°27' E 015°54'0 0.0
2016-Jun-17 16:33N 38°27' E 015°54'0 0.0
2016-Jun-17 15:31N 38°27' E 015°54'0 0.0
2016-Jun-17 14:28N 38°27' E 015°54'0 0.0
2016-Jun-17 13:32N 38°27' E 015°54'0 0.0
2016-Jun-17 12:31N 38°27' E 015°54'0 0.0
2016-Jun-17 11:33N 38°27' E 015°54'0 0.0
2016-Jun-17 10:31N 38°27' E 015°54'0 0.0
2016-Jun-17 09:31N 38°27' E 015°54'0 0.0
2016-Jun-17 08:32N 38°27' E 015°54'0 0.0
2016-Jun-17 07:33N 38°27' E 015°54'0 0.0
2016-Jun-17 06:32N 38°27' E 015°54'0 0.0
2016-Jun-17 05:32N 38°27' E 015°54'0 0.0
2016-Jun-17 04:31N 38°27' E 015°54'0 0.0
2016-Jun-17 03:33N 38°27' E 015°54'7 6.7
2016-Jun-17 02:34N 38°22' E 015°48'1212.4
2016-Jun-17 01:33N 38°13' E 015°37'1313.1
2016-Jun-17 00:34N 38°00' E 015°36'1212.0
2016-Jun-16 23:34N 37°52' E 015°46'1313.0
2016-Jun-16 22:33N 37°49' E 016°03'1312.5
2016-Jun-16 21:32N 37°45' E 016°18'1212.6
2016-Jun-16 20:33N 37°41' E 016°33'1312.5
2016-Jun-16 19:33N 37°38' E 016°48'1212.3
2016-Jun-16 18:33N 37°35' E 017°03'1212.4
2016-Jun-16 17:33N 37°31' E 017°18'1312.7
2016-Jun-16 16:32N 37°28' E 017°34'1713.2
2016-Jun-16 15:12N 37°23' E 017°55'5012.9
2016-Jun-16 11:20N 37°09' E 018°56'1012.5
2016-Jun-16 10:33N 37°07' E 019°07'1212.4
2016-Jun-16 09:33N 37°03' E 019°22'1212.5
2016-Jun-16 08:33N 36°60' E 019°37'17811.9
2016-Jun-15 17:33N 36°34' E 023°17'1212.5
2016-Jun-15 16:33N 36°46' E 023°20'1212.3
2016-Jun-15 15:33N 36°58' E 023°24'1312.6
2016-Jun-15 14:34N 37°09' E 023°32'1312.7
2016-Jun-15 13:34N 37°21' E 023°39'1212.5
2016-Jun-15 12:33N 37°33' E 023°42'1212.0
2016-Jun-15 11:33N 37°45' E 023°39'10 9.2
2016-Jun-15 10:31N 37°52' E 023°32'0 0.1
2016-Jun-15 09:32N 37°52' E 023°32'0 0.0
2016-Jun-15 08:32N 37°52' E 023°32'0 0.1
2016-Jun-15 07:32N 37°52' E 023°32'0 0.0
2016-Jun-15 06:32N 37°52' E 023°32'0 0.1
2016-Jun-15 05:32N 37°52' E 023°32'  
Track history (hours):
 
Tides and Currents Weather Stations Pressure Air Temp Water Temp Dewpoint Dewpoint Depression Visibility Wind Speed Wind Dir Waves Ship Positions

MSC Annamaria

Last reported at 2016-Jun-25 04:33 UTC. Time now 2016-Jun-25 05:19 UTC.
Position N 40°41' E 014°12'.

Length 188 m; draft 6.8 m.

Type: Ship (hazmat cat A). MMSI: 353852000.

Date/timePositionNaut miles runAvg speedWind from/ knotsBaromVisibWave heightAir tempDewpointWater temp
2016-Jun-25 04:33N 40°41' E 014°12'1312.9
2016-Jun-25 03:33N 40°29' E 014°06'11013.6
2016-Jun-24 19:31N 38°58' E 015°25'1313.3
2016-Jun-24 18:33N 38°48' E 015°34'1513.8
2016-Jun-24 17:29N 38°35' E 015°44'1112.2
2016-Jun-24 16:33N 38°27' E 015°54'1 0.6
2016-Jun-24 15:31N 38°27' E 015°54'0 0.0
2016-Jun-24 14:31N 38°27' E 015°54'0 0.0
2016-Jun-24 13:27N 38°27' E 015°54'0 0.0
2016-Jun-24 12:31N 38°27' E 015°54'0 0.0
2016-Jun-24 11:26N 38°27' E 015°54'0 0.0
2016-Jun-24 10:29N 38°27' E 015°54'0 0.0
2016-Jun-24 09:19N 38°27' E 015°54'0 0.0
2016-Jun-24 08:32N 38°27' E 015°54'0 0.0
2016-Jun-24 07:32N 38°27' E 015°54'0 0.0
2016-Jun-24 04:27N 38°27' E 015°54'0 0.0
2016-Jun-24 03:31N 38°27' E 015°54'0 0.0
2016-Jun-24 02:25N 38°27' E 015°54'0 0.0
2016-Jun-24 01:33N 38°27' E 015°54'0 0.0
2016-Jun-24 00:28N 38°27' E 015°54'0 0.0
2016-Jun-23 23:28N 38°27' E 015°54'0 0.0
2016-Jun-23 22:32N 38°27' E 015°54'0 0.0
2016-Jun-23 21:32N 38°27' E 015°54'0 0.0
2016-Jun-23 20:25N 38°27' E 015°54'0 0.0
2016-Jun-23 19:32N 38°27' E 015°54'0 0.0
2016-Jun-23 18:24N 38°27' E 015°54'0 0.0
2016-Jun-23 17:32N 38°27' E 015°54'0 0.2
2016-Jun-23 16:33N 38°27' E 015°54'4 4.4
2016-Jun-23 15:34N 38°30' E 015°50'1212.2
2016-Jun-23 14:33N 38°40' E 015°41'1313.2
2016-Jun-23 13:33N 38°51' E 015°32'1413.3
2016-Jun-23 12:27N 39°03' E 015°21'1213.4
2016-Jun-23 11:33N 39°13' E 015°12'106 7.0
2016-Jun-22 20:21N 40°50' E 014°17'0 0.0
2016-Jun-22 19:33N 40°50' E 014°17'0 0.0
2016-Jun-22 18:34N 40°50' E 014°17'0 0.0
2016-Jun-22 17:34N 40°50' E 014°17'0 0.0
2016-Jun-22 11:14N 40°50' E 014°17'0 0.0
2016-Jun-22 10:31N 40°50' E 014°17'0 0.0
2016-Jun-22 09:34N 40°50' E 014°17'68 6.6
2016-Jun-21 23:16N 40°37' E 012°49'5712.2
2016-Jun-21 18:34N 41°12' E 011°49'1312.5
2016-Jun-21 17:34N 41°20' E 011°36'1312.4
2016-Jun-21 16:32N 41°28' E 011°23'7512.0
2016-Jun-21 10:17N 42°15' E 010°04'811.7
2016-Jun-21 09:33N 42°22' E 009°58'2512.6
2016-Jun-21 07:32N 42°46' E 009°47'2412.3
2016-Jun-21 05:34N 43°08' E 009°34'1212.4
2016-Jun-21 04:34N 43°19' E 009°26'1212.1
2016-Jun-21 03:33N 43°30' E 009°18'1111.5
2016-Jun-21 02:34N 43°40' E 009°11'1211.5
2016-Jun-21 01:34N 43°50' E 009°03'1111.5
2016-Jun-21 00:34N 44°01' E 008°56'1211.5
2016-Jun-20 23:33N 44°11' E 008°49'1211.8
2016-Jun-20 22:34N 44°22' E 008°42'5 4.9
2016-Jun-20 21:33N 44°25' E 008°48'0 0.0
2016-Jun-20 20:25N 44°25' E 008°48'0 0.0
2016-Jun-20 19:33N 44°25' E 008°48'0 0.0
2016-Jun-20 18:33N 44°25' E 008°48'0 0.0
2016-Jun-20 17:33N 44°25' E 008°48'0 0.0
2016-Jun-20 16:33N 44°25' E 008°48'0 0.0
2016-Jun-20 15:33N 44°25' E 008°48'0 0.0
2016-Jun-20 14:31N 44°25' E 008°48'0 0.0
2016-Jun-20 13:33N 44°25' E 008°48'0 0.0
2016-Jun-20 12:31N 44°25' E 008°48'0 0.0
2016-Jun-20 11:33N 44°25' E 008°48'0 0.0
2016-Jun-20 10:32N 44°25' E 008°48'0 0.0
2016-Jun-20 09:32N 44°25' E 008°48'0 0.0
2016-Jun-20 08:28N 44°25' E 008°48'4 4.7
2016-Jun-20 07:33N 44°22' E 008°43'1212.2
2016-Jun-20 06:33N 44°11' E 008°50'1313.1
2016-Jun-20 05:34N 43°59' E 008°57'1413.6
2016-Jun-20 04:34N 43°47' E 009°06'1413.7
2016-Jun-20 03:33N 43°35' E 009°14'1313.3
2016-Jun-20 02:33N 43°23' E 009°23'1312.9
2016-Jun-20 01:33N 43°12' E 009°33'1312.9
2016-Jun-20 00:33N 43°00' E 009°39'1312.7
2016-Jun-19 23:33N 42°48' E 009°45'5112.5
2016-Jun-19 19:30N 42°04' E 010°19'28612.5
2016-Jun-18 20:33N 38°52' E 014°58'1313.1
2016-Jun-18 19:33N 38°43' E 015°10'1313.3
2016-Jun-18 18:33N 38°37' E 015°26'1313.4
2016-Jun-18 17:33N 38°32' E 015°41'1111.0
2016-Jun-18 16:34N 38°27' E 015°53'1 0.7
2016-Jun-18 15:30N 38°27' E 015°54'0 0.0
2016-Jun-18 14:33N 38°27' E 015°54'0 0.0
2016-Jun-18 13:22N 38°27' E 015°54'0 0.0
2016-Jun-18 12:29N 38°27' E 015°54'0 0.0
2016-Jun-18 11:32N 38°27' E 015°54'0 0.0
2016-Jun-18 10:32N 38°27' E 015°54'0 0.0
2016-Jun-18 09:33N 38°27' E 015°54'0 0.0
2016-Jun-18 08:31N 38°27' E 015°54'0 0.0
2016-Jun-18 07:33N 38°27' E 015°54'0 0.0
2016-Jun-18 06:29N 38°27' E 015°54'0 0.0
2016-Jun-18 05:32N 38°27' E 015°54'0 0.0
2016-Jun-18 04:30N 38°27' E 015°54'0 0.0
2016-Jun-18 03:31N 38°27' E 015°54'0 0.0
2016-Jun-18 02:31N 38°27' E 015°54'0 0.0
2016-Jun-18 01:31N 38°27' E 015°54'0 0.0
2016-Jun-18 00:32N 38°27' E 015°54'0 0.0
2016-Jun-17 23:33N 38°27' E 015°54'0 0.0
2016-Jun-17 22:33N 38°27' E 015°54'0 0.0
2016-Jun-17 21:33N 38°27' E 015°54'0 0.0
2016-Jun-17 20:32N 38°27' E 015°54'0 0.0
2016-Jun-17 19:32N 38°27' E 015°54'0 0.0
2016-Jun-17 18:33N 38°27' E 015°54'0 0.0
2016-Jun-17 17:33N 38°27' E 015°54'0 0.0
2016-Jun-17 16:33N 38°27' E 015°54'0 0.0
2016-Jun-17 15:31N 38°27' E 015°54'0 0.0
2016-Jun-17 14:28N 38°27' E 015°54'0 0.0
2016-Jun-17 13:32N 38°27' E 015°54'0 0.0
2016-Jun-17 12:31N 38°27' E 015°54'0 0.0
2016-Jun-17 11:33N 38°27' E 015°54'0 0.0
2016-Jun-17 10:31N 38°27' E 015°54'0 0.0
2016-Jun-17 09:31N 38°27' E 015°54'0 0.0
2016-Jun-17 08:32N 38°27' E 015°54'0 0.0
2016-Jun-17 07:33N 38°27' E 015°54'0 0.0
2016-Jun-17 06:32N 38°27' E 015°54'0 0.0
2016-Jun-17 05:32N 38°27' E 015°54'0 0.0
2016-Jun-17 04:31N 38°27' E 015°54'0 0.0
2016-Jun-17 03:33N 38°27' E 015°54'7 6.7
2016-Jun-17 02:34N 38°22' E 015°48'1212.4
2016-Jun-17 01:33N 38°13' E 015°37'1313.1
2016-Jun-17 00:34N 38°00' E 015°36'1212.0
2016-Jun-16 23:34N 37°52' E 015°46'1313.0
2016-Jun-16 22:33N 37°49' E 016°03'1312.5
2016-Jun-16 21:32N 37°45' E 016°18'1212.6
2016-Jun-16 20:33N 37°41' E 016°33'1312.5
2016-Jun-16 19:33N 37°38' E 016°48'1212.3
2016-Jun-16 18:33N 37°35' E 017°03'1212.4
2016-Jun-16 17:33N 37°31' E 017°18'1312.7
2016-Jun-16 16:32N 37°28' E 017°34'1713.2
2016-Jun-16 15:12N 37°23' E 017°55'5012.9
2016-Jun-16 11:20N 37°09' E 018°56'1012.5
2016-Jun-16 10:33N 37°07' E 019°07'1212.4
2016-Jun-16 09:33N 37°03' E 019°22'1212.5
2016-Jun-16 08:33N 36°60' E 019°37'17811.9
2016-Jun-15 17:33N 36°34' E 023°17'1212.5
2016-Jun-15 16:33N 36°46' E 023°20'1212.3
2016-Jun-15 15:33N 36°58' E 023°24'1312.6
2016-Jun-15 14:34N 37°09' E 023°32'1312.7
2016-Jun-15 13:34N 37°21' E 023°39'1212.5
2016-Jun-15 12:33N 37°33' E 023°42'1212.0
2016-Jun-15 11:33N 37°45' E 023°39'10 9.2
2016-Jun-15 10:31N 37°52' E 023°32'0 0.1
2016-Jun-15 09:32N 37°52' E 023°32'0 0.0
2016-Jun-15 08:32N 37°52' E 023°32'0 0.1
2016-Jun-15 07:32N 37°52' E 023°32'0 0.0
2016-Jun-15 06:32N 37°52' E 023°32'0 0.1
2016-Jun-15 05:32N 37°52' E 023°32'  

Dump ship's entire track history